KRDR/RDR METAR and TAF weather

Enter ICAO airport designator
Station Type Date Time Source
KRDR METAR 2019/08/25 14:15 UTC NOAA

KRDR 251415Z AUTO 17009KT 10SM -RA FEW010 OVC017 16/16 A2981 RMK AO2 RAB1357 SLP098


Station Type Date Time Source
KRDR Decoded METAR 2019/08/25 14:15 UTC NOAA

Station name not available
Aug 25, 2019 - 10:15 AM EDT / 2019.08.25 1415 UTC
Wind: from the S (170 degrees) at 10 MPH (9 KT):0
Visibility: 10 mile(s):0
Sky conditions: overcast
Weather: light rain
Temperature: 60 F (16 C)
Dew Point: 60 F (16 C)
Relative Humidity: 100%
Pressure (altimeter): 29.81 in. Hg (1009 hPa)
ob: KRDR 251415Z AUTO 17009KT 10SM -RA FEW010 OVC017 16/16 A2981 RMK AO2 RAB1357 SLP098
cycle: 14

Station Type Date Time Source
KRDR TAF 2019/08/25 13:52 UTC NOAA

TAF
AMD KRDR 251340Z 2513/2616 18012G18KT 9999 -RA OVC018 510202 QNH2978INS
BECMG 2519/2520 18012G18KT 9000 -SHRA OVC020 QNH2968INS
BECMG 2605/2606 20009KT 9999 NSW OVC008 QNH2968INS
BECMG 2612/2613 30006KT 9999 FEW010 BKN100 QNH2970INS WND 30012KT AFT 2615 TX23/2521Z TN15/2609Z

Example: see airport list